Time;durP1;ratioP1;P1;durP2;ratioP2;P2;SDS_P1;SDS_P2;PMS_P1;PMS_P2;Temp;Humidity;BMP_temperature;BMP_pressure;BME280_temperature;BME280_humidity;BME280_pressure;Samples;Min_cycle;Max_cycle;Signal;HPM_P1;HPM_P2
2021/03/09 00:00:08;;;;;;;25.27;13.50;;;5.00;91.50;;;;;;5105853;28;20055;-80
2021/03/09 00:02:35;;;;;;;28.23;15.47;;;5.00;91.60;;;;;;5087486;28;20044;-80
2021/03/09 00:05:01;;;;;;;31.13;17.20;;;5.00;91.70;;;;;;5087796;28;20054;-80
2021/03/09 00:07:28;;;;;;;28.50;15.60;;;5.00;91.80;;;;;;5086074;28;20035;-80
2021/03/09 00:09:54;;;;;;;28.80;16.77;;;4.90;91.90;;;;;;5103542;28;20051;-80
2021/03/09 00:12:21;;;;;;;20.17;12.23;;;4.90;92.00;;;;;;5085809;28;20032;-80
2021/03/09 00:14:48;;;;;;;23.90;14.30;;;4.90;92.10;;;;;;5085782;28;20028;-80
2021/03/09 00:17:14;;;;;;;28.40;14.30;;;4.90;92.10;;;;;;5089725;28;20047;-80
2021/03/09 00:19:41;;;;;;;24.97;13.57;;;4.90;92.20;;;;;;5075653;28;20036;-80
2021/03/09 00:22:07;;;;;;;25.23;14.87;;;4.90;92.20;;;;;;5079663;28;20036;-80
2021/03/09 00:24:33;;;;;;;25.70;15.23;;;4.90;92.40;;;;;;5090626;28;20031;-80
2021/03/09 00:27:00;;;;;;;27.97;15.47;;;4.90;92.50;;;;;;5102947;28;20422;-80
2021/03/09 00:29:27;;;;;;;24.43;13.33;;;4.90;92.50;;;;;;5086220;28;20047;-80
2021/03/09 00:31:53;;;;;;;27.00;14.60;;;4.90;92.50;;;;;;5105038;28;20226;-80
2021/03/09 00:34:20;;;;;;;28.73;14.77;;;4.90;92.60;;;;;;5069389;28;20414;-80
2021/03/09 00:36:46;;;;;;;27.90;15.63;;;4.90;92.70;;;;;;5090886;28;20047;-80
2021/03/09 00:39:13;;;;;;;26.00;14.57;;;4.90;92.80;;;;;;5076701;28;20032;-80
2021/03/09 00:41:39;;;;;;;24.20;12.80;;;4.90;93.10;;;;;;5054335;28;20055;-80
2021/03/09 00:44:06;;;;;;;27.33;15.20;;;4.90;93.20;;;;;;5053156;28;20043;-80
2021/03/09 00:46:32;;;;;;;23.87;13.13;;;4.80;93.00;;;;;;5066994;28;20036;-80
2021/03/09 00:49:04;;;;;;;26.37;13.17;;;4.80;93.00;;;;;;5071832;28;20489;-80
2021/03/09 00:51:31;;;;;;;24.10;13.13;;;4.80;93.10;;;;;;5109443;28;20043;-79
2021/03/09 00:53:57;;;;;;;27.77;14.53;;;4.80;93.20;;;;;;5072102;28;20040;-80
2021/03/09 00:56:24;;;;;;;26.23;13.90;;;4.80;93.20;;;;;;5079268;28;20046;-80
2021/03/09 00:58:50;;;;;;;28.23;14.83;;;4.80;93.30;;;;;;5096468;28;20398;-80
2021/03/09 01:01:16;;;;;;;26.77;13.60;;;4.80;93.40;;;;;;5074152;28;20489;-80
2021/03/09 01:03:43;;;;;;;26.30;14.70;;;4.80;93.40;;;;;;5089049;28;20039;-80
2021/03/09 01:06:10;;;;;;;29.57;15.83;;;4.70;93.50;;;;;;5089362;28;20422;-80
2021/03/09 01:08:36;;;;;;;24.03;14.00;;;4.80;93.50;;;;;;5072941;28;20039;-81
2021/03/09 01:11:03;;;;;;;26.03;14.97;;;4.70;93.60;;;;;;5089704;28;20040;-81
2021/03/09 01:13:29;;;;;;;29.37;15.27;;;4.70;93.60;;;;;;5080587;28;20367;-81
2021/03/09 01:15:56;;;;;;;30.47;15.73;;;4.70;93.70;;;;;;5095906;28;20044;-81
2021/03/09 01:18:22;;;;;;;36.50;19.50;;;4.70;93.70;;;;;;5090979;28;20040;-81
2021/03/09 01:20:49;;;;;;;27.97;16.00;;;4.70;93.80;;;;;;5090095;28;20036;-80
2021/03/09 01:23:15;;;;;;;34.97;17.87;;;4.70;93.80;;;;;;5089686;28;20071;-79
2021/03/09 01:25:42;;;;;;;32.13;17.67;;;4.70;93.90;;;;;;5089514;28;20031;-79
2021/03/09 01:28:10;;;;;;;32.67;18.03;;;4.70;94.00;;;;;;5078211;28;20070;-79
2021/03/09 01:30:37;;;;;;;34.50;18.70;;;4.70;94.00;;;;;;5090278;28;20057;-79
2021/03/09 01:33:04;;;;;;;33.50;18.60;;;4.70;94.10;;;;;;5082549;28;21432;-79
2021/03/09 01:35:31;;;;;;;33.33;17.00;;;4.70;94.20;;;;;;5089944;28;20619;-80
2021/03/09 01:37:57;;;;;;;37.30;19.00;;;4.70;94.20;;;;;;5075508;28;20380;-80
2021/03/09 01:40:25;;;;;;;36.50;18.53;;;4.70;94.30;;;;;;5090155;28;20043;-80
2021/03/09 01:42:52;;;;;;;37.83;20.87;;;4.70;94.30;;;;;;5090914;28;20038;-79
2021/03/09 01:45:19;;;;;;;43.60;23.07;;;4.70;94.40;;;;;;5045010;28;20048;-79
2021/03/09 01:47:47;;;;;;;43.37;24.70;;;4.60;94.50;;;;;;5106539;28;21631;-79
2021/03/09 01:50:16;;;;;;;42.63;22.43;;;4.60;94.70;;;;;;5091273;28;20887;-80
2021/03/09 01:52:45;;;;;;;40.93;21.53;;;4.60;94.80;;;;;;5077655;28;20035;-81
2021/03/09 01:55:12;;;;;;;43.57;23.13;;;4.60;94.90;;;;;;5106590;28;20046;-81
2021/03/09 01:57:41;;;;;;;47.90;25.50;;;4.60;94.90;;;;;;5061463;28;20043;-80
2021/03/09 02:00:09;;;;;;;52.40;26.00;;;4.60;94.90;;;;;;5090293;28;20043;-79
2021/03/09 02:02:42;;;;;;;57.43;27.97;;;4.50;95.00;;;;;;5108602;28;20506;-79
2021/03/09 02:05:10;;;;;;;53.30;26.93;;;4.50;95.10;;;;;;5097716;28;20949;-79
2021/03/09 02:07:37;;;;;;;47.37;25.63;;;4.50;95.10;;;;;;5087892;28;20043;-79
2021/03/09 02:10:07;;;;;;;48.00;24.87;;;4.50;95.20;;;;;;5107018;28;20035;-79
2021/03/09 02:12:53;;;;;;;52.70;25.80;;;4.50;95.20;;;;;;5083295;28;20024;-80
2021/03/09 02:15:44;;;;;;;54.33;26.43;;;4.50;95.20;;;;;;5088528;28;20035;-80
2021/03/09 02:18:29;;;;;;;58.70;28.33;;;4.50;95.30;;;;;;5088243;28;20027;-80
2021/03/09 02:21:33;;;;;;;47.73;25.60;;;4.50;95.40;;;;;;5103807;28;20051;-81
2021/03/09 02:24:40;;;;;;;54.37;27.60;;;4.50;95.40;;;;;;5069885;28;20035;-80
2021/03/09 02:27:47;;;;;;;45.93;23.67;;;4.50;95.40;;;;;;5077169;28;20391;-80
2021/03/09 02:30:21;;;;;;;51.53;25.53;;;4.50;95.40;;;;;;5071239;28;20036;-80
2021/03/09 02:33:00;;;;;;;59.87;29.53;;;4.60;95.50;;;;;;5060859;28;20064;-80
2021/03/09 02:35:30;;;;;;;64.27;29.00;;;4.60;95.50;;;;;;5064677;28;20486;-80
2021/03/09 02:38:00;;;;;;;59.37;29.20;;;4.60;95.60;;;;;;5066262;28;20032;-80
2021/03/09 02:40:28;;;;;;;59.07;27.83;;;4.60;95.60;;;;;;5071495;28;20036;-79
2021/03/09 02:43:00;;;;;;;52.43;28.60;;;4.60;95.60;;;;;;5064539;28;20403;-80
2021/03/09 02:45:28;;;;;;;62.50;29.73;;;4.60;95.70;;;;;;5065993;28;20040;-81
2021/03/09 02:47:55;;;;;;;58.57;29.40;;;4.60;95.70;;;;;;5093226;28;20048;-80
2021/03/09 02:50:26;;;;;;;55.93;30.10;;;4.60;95.80;;;;;;5039491;28;20037;-80
2021/03/09 02:52:57;;;;;;;59.00;29.20;;;4.60;95.80;;;;;;5065200;28;20036;-80
2021/03/09 02:55:25;;;;;;;60.57;28.33;;;4.60;95.90;;;;;;5068648;28;20036;-81
2021/03/09 02:57:54;;;;;;;61.10;30.57;;;4.60;95.90;;;;;;5067192;28;20048;-80
2021/03/09 03:00:22;;;;;;;79.23;35.77;;;4.60;95.90;;;;;;5072700;28;20039;-80
2021/03/09 03:02:50;;;;;;;56.03;28.93;;;4.60;95.90;;;;;;5049032;28;20047;-80
2021/03/09 03:05:18;;;;;;;56.20;27.53;;;4.60;96.00;;;;;;5079328;28;20882;-80
2021/03/09 03:07:45;;;;;;;62.93;31.47;;;4.70;96.00;;;;;;5060080;28;20031;-78
2021/03/09 03:10:19;;;;;;;63.60;33.33;;;4.70;96.00;;;;;;5063910;28;20040;-78
2021/03/09 03:12:48;;;;;;;62.70;30.03;;;4.70;96.10;;;;;;5045824;28;20040;-77
2021/03/09 03:15:16;;;;;;;59.00;29.00;;;4.70;96.10;;;;;;5052426;28;20047;-78
2021/03/09 03:17:44;;;;;;;69.97;34.30;;;4.70;96.10;;;;;;5075122;28;20052;-79
2021/03/09 03:20:15;;;;;;;62.67;31.87;;;4.70;96.10;;;;;;5073422;28;20039;-78
2021/03/09 03:22:43;;;;;;;64.07;32.13;;;4.70;96.20;;;;;;5090971;28;20033;-78
2021/03/09 03:25:12;;;;;;;71.20;34.60;;;4.70;96.20;;;;;;5092774;28;20395;-78
2021/03/09 03:27:40;;;;;;;63.73;34.23;;;4.70;96.20;;;;;;5074569;28;20056;-78
2021/03/09 03:30:12;;;;;;;66.53;33.10;;;4.70;96.20;;;;;;5049434;28;20056;-79
2021/03/09 03:32:39;;;;;;;61.65;30.00;;;4.70;96.30;;;;;;5065331;28;20067;-78
2021/03/09 03:35:08;;;;;;;69.80;33.53;;;4.70;96.30;;;;;;5039922;28;20929;-78
2021/03/09 03:37:36;;;;;;;68.77;34.77;;;4.80;96.40;;;;;;5063768;28;20045;-78
2021/03/09 03:40:07;;;;;;;65.87;34.17;;;4.80;96.40;;;;;;5064994;28;20043;-78
2021/03/09 03:42:33;;;;;;;81.47;38.90;;;4.80;96.40;;;;;;5064993;28;20387;-78
2021/03/09 03:45:00;;;;;;;68.93;35.40;;;4.80;96.40;;;;;;5047676;28;20040;-78
2021/03/09 03:47:26;;;;;;;69.77;35.27;;;4.80;96.50;;;;;;5063853;28;20052;-79
2021/03/09 03:49:53;;;;;;;76.83;37.70;;;4.80;96.50;;;;;;5063688;28;20495;-79
2021/03/09 03:52:47;;;;;;;77.07;38.73;;;4.80;96.60;;;;;;5065712;28;20041;-78
2021/03/09 03:55:39;;;;;;;85.87;42.50;;;4.80;96.60;;;;;;5062130;28;20044;-78
2021/03/09 03:58:15;;;;;;;74.93;36.43;;;4.80;96.60;;;;;;5062524;28;20490;-79
2021/03/09 04:00:43;;;;;;;76.30;37.90;;;4.80;96.70;;;;;;5047055;28;20024;-80
2021/03/09 04:03:13;;;;;;;81.37;40.37;;;4.80;97.00;;;;;;5048713;28;20115;-79
2021/03/09 04:05:44;;;;;;;82.00;39.50;;;4.80;96.80;;;;;;5046780;28;20060;-79
2021/03/09 04:08:12;;;;;;;93.00;44.43;;;4.80;96.80;;;;;;5063071;28;20032;-79
2021/03/09 04:10:41;;;;;;;102.73;48.97;;;4.80;96.80;;;;;;5034811;28;20046;-79
2021/03/09 04:13:08;;;;;;;89.47;43.97;;;4.80;96.90;;;;;;5037768;28;20029;-79
2021/03/09 04:15:36;;;;;;;80.23;41.60;;;4.80;96.90;;;;;;5051263;28;20028;-79
2021/03/09 04:18:07;;;;;;;88.93;42.77;;;4.80;97.00;;;;;;5063310;28;20032;-79
2021/03/09 04:20:35;;;;;;;75.27;40.97;;;4.80;97.00;;;;;;5078408;28;20033;-79
2021/03/09 04:23:05;;;;;;;111.80;51.50;;;4.80;97.30;;;;;;5044446;28;20032;-79
2021/03/09 04:25:38;;;;;;;92.87;45.13;;;4.80;97.10;;;;;;5050047;28;20055;-79
2021/03/09 04:28:06;;;;;;;83.40;40.87;;;4.80;97.10;;;;;;5065132;28;20079;-79
2021/03/09 04:30:33;;;;;;;92.17;45.53;;;4.80;97.20;;;;;;5050810;28;20047;-79
2021/03/09 04:33:01;;;;;;;97.57;48.17;;;4.80;97.30;;;;;;5067681;28;20047;-78
2021/03/09 04:35:28;;;;;;;100.97;49.93;;;4.90;97.30;;;;;;5067061;28;20048;-78
2021/03/09 04:37:55;;;;;;;94.53;45.00;;;4.80;97.30;;;;;;5048607;28;20515;-78
2021/03/09 04:40:22;;;;;;;82.20;42.77;;;4.80;97.40;;;;;;5065951;28;20411;-78
2021/03/09 04:42:49;;;;;;;101.37;47.67;;;4.80;97.40;;;;;;5084862;28;20494;-78
2021/03/09 04:45:16;;;;;;;92.70;48.27;;;4.90;97.50;;;;;;5083862;28;20048;-79
2021/03/09 04:47:43;;;;;;;87.17;43.53;;;4.90;97.40;;;;;;5069500;28;20051;-79
2021/03/09 04:50:13;;;;;;;84.53;43.50;;;4.80;97.50;;;;;;5068205;28;20495;-79
2021/03/09 04:52:41;;;;;;;102.10;48.57;;;4.90;97.60;;;;;;5069716;28;20044;-79
2021/03/09 04:55:10;;;;;;;96.33;47.53;;;4.90;97.60;;;;;;5065202;28;20056;-79
2021/03/09 04:57:39;;;;;;;110.63;52.60;;;4.90;97.60;;;;;;5068557;28;20036;-79
2021/03/09 05:00:11;;;;;;;92.50;46.07;;;4.90;97.60;;;;;;5043348;28;20039;-78
2021/03/09 05:02:38;;;;;;;104.50;49.97;;;4.90;97.70;;;;;;5035766;28;20487;-78
2021/03/09 05:05:06;;;;;;;101.60;51.30;;;4.90;97.70;;;;;;5068417;28;21192;-78
2021/03/09 05:07:33;;;;;;;105.63;53.40;;;4.90;97.70;;;;;;5066702;28;20032;-79
2021/03/09 05:09:59;;;;;;;102.83;51.50;;;4.90;97.70;;;;;;5058639;28;20040;-79
2021/03/09 05:12:26;;;;;;;102.70;52.27;;;4.90;97.80;;;;;;5069093;28;20043;-78
2021/03/09 05:14:52;;;;;;;103.10;51.63;;;4.90;97.80;;;;;;5057505;28;20048;-78
2021/03/09 05:17:19;;;;;;;110.93;54.80;;;4.90;97.90;;;;;;5051226;28;20518;-79
2021/03/09 05:19:45;;;;;;;129.90;62.77;;;4.90;97.90;;;;;;5066654;28;20045;-78
2021/03/09 05:22:12;;;;;;;116.40;56.50;;;4.90;97.90;;;;;;5067200;28;20044;-78
2021/03/09 05:24:38;;;;;;;115.93;56.33;;;4.90;98.00;;;;;;5034835;28;20044;-79
2021/03/09 05:27:05;;;;;;;108.27;50.90;;;4.90;98.00;;;;;;5071090;28;20062;-78
2021/03/09 05:29:32;;;;;;;122.53;60.93;;;4.90;98.10;;;;;;5086178;28;20051;-79
2021/03/09 05:31:58;;;;;;;130.77;65.40;;;4.90;98.10;;;;;;5091090;28;20048;-79
2021/03/09 05:34:25;;;;;;;146.67;67.57;;;5.00;98.10;;;;;;5076962;28;20522;-79
2021/03/09 05:36:52;;;;;;;137.20;61.90;;;5.00;98.10;;;;;;5063962;28;20506;-79
2021/03/09 05:39:18;;;;;;;141.60;66.40;;;5.00;98.20;;;;;;5078523;28;20036;-76
2021/03/09 05:41:45;;;;;;;137.30;64.77;;;5.00;98.30;;;;;;5092351;28;20035;-79
2021/03/09 05:44:11;;;;;;;148.83;69.47;;;5.00;98.20;;;;;;5103629;28;20048;-79
2021/03/09 05:46:38;;;;;;;129.27;63.23;;;5.00;98.20;;;;;;5104139;28;20032;-78
2021/03/09 05:49:05;;;;;;;140.60;65.43;;;5.00;98.20;;;;;;5090856;28;20094;-79
2021/03/09 05:51:31;;;;;;;137.47;66.73;;;5.00;98.30;;;;;;5068231;28;20044;-79
2021/03/09 05:53:58;;;;;;;127.27;60.50;;;5.00;98.30;;;;;;5076635;28;20036;-78
2021/03/09 05:56:24;;;;;;;136.97;67.60;;;5.00;98.30;;;;;;5070404;28;20883;-83
2021/03/09 05:58:54;;;;;;;139.47;66.23;;;5.00;98.40;;;;;;5091226;28;20051;-78
2021/03/09 06:01:21;;;;;;;131.50;65.40;;;5.00;98.40;;;;;;5085148;28;20043;-78
2021/03/09 06:03:47;;;;;;;127.47;60.77;;;5.00;98.50;;;;;;5101253;28;21550;-78
2021/03/09 06:06:14;;;;;;;134.17;65.77;;;5.00;98.50;;;;;;5071168;28;20386;-85
2021/03/09 06:08:43;;;;;;;146.13;71.90;;;5.10;98.50;;;;;;5045182;28;20047;-80
2021/03/09 06:11:17;;;;;;;144.93;71.83;;;5.00;98.50;;;;;;5066925;28;20509;-79
2021/03/09 06:13:45;;;;;;;128.63;61.67;;;5.00;98.50;;;;;;5082425;28;20035;-82
2021/03/09 06:16:12;;;;;;;129.63;60.60;;;5.10;98.60;;;;;;5056218;28;20040;-76
2021/03/09 06:19:00;;;;;;;140.93;68.40;;;5.10;98.60;;;;;;5076273;28;20039;-83
2021/03/09 06:21:34;;;;;;;147.33;71.27;;;5.10;98.60;;;;;;5077707;28;20059;-79
2021/03/09 06:24:18;;;;;;;152.70;74.90;;;5.10;98.60;;;;;;5090114;28;20431;-80
2021/03/09 06:26:45;;;;;;;156.53;71.47;;;5.10;98.70;;;;;;5064629;28;20064;-77
2021/03/09 06:29:17;;;;;;;151.27;71.40;;;5.10;98.70;;;;;;5055232;28;20036;-80
2021/03/09 06:31:56;;;;;;;162.02;78.20;;;5.10;98.70;;;;;;5052211;28;20045;-79
2021/03/09 06:34:36;;;;;;;154.27;74.00;;;5.10;98.70;;;;;;5050784;28;20036;-91
2021/03/09 06:37:19;;;;;;;158.47;72.83;;;5.20;98.70;;;;;;5053742;28;20043;-79
2021/03/09 06:39:54;;;;;;;163.23;77.80;;;5.20;98.80;;;;;;5074547;28;20386;-82
2021/03/09 06:42:47;;;;;;;176.30;82.57;;;5.20;98.80;;;;;;5067781;28;20039;-82
2021/03/09 06:45:15;;;;;;;177.07;83.22;;;5.20;98.80;;;;;;5068272;28;20071;-79
2021/03/09 06:47:47;;;;;;;166.17;81.20;;;5.20;98.80;;;;;;5067966;28;20040;-79
2021/03/09 06:50:14;;;;;;;181.48;83.32;;;5.20;98.80;;;;;;5055430;28;20045;-80
2021/03/09 06:52:42;;;;;;;175.63;81.07;;;5.20;98.90;;;;;;5066839;28;20047;-78
2021/03/09 06:55:11;;;;;;;176.07;85.13;;;5.20;98.90;;;;;;5062132;28;20523;-81
2021/03/09 06:57:39;;;;;;;189.47;84.63;;;5.20;98.90;;;;;;5066343;28;20041;-81
2021/03/09 07:00:09;;;;;;;188.40;88.07;;;5.20;98.90;;;;;;5047786;28;20048;-81
2021/03/09 07:02:37;;;;;;;183.53;85.43;;;5.20;98.90;;;;;;5070061;28;21144;-82
2021/03/09 07:05:10;;;;;;;168.83;77.93;;;5.30;99.00;;;;;;5061532;28;20043;-82
2021/03/09 07:07:45;;;;;;;205.70;90.65;;;5.30;99.10;;;;;;5059584;28;20048;-82
2021/03/09 07:10:17;;;;;;;170.83;77.63;;;5.40;99.10;;;;;;5074282;28;20390;-81
2021/03/09 07:12:48;;;;;;;143.37;64.17;;;5.30;99.00;;;;;;5076344;28;20052;-83
2021/03/09 07:15:19;;;;;;;140.30;61.93;;;5.40;99.10;;;;;;5065113;28;20052;-83
2021/03/09 07:17:50;;;;;;;174.33;77.70;;;5.40;99.20;;;;;;5036689;28;20047;-82
2021/03/09 07:20:18;;;;;;;163.87;74.37;;;5.50;99.20;;;;;;5031518;28;20040;-81
2021/03/09 07:22:45;;;;;;;158.40;72.77;;;5.50;99.20;;;;;;5066252;28;20534;-81
2021/03/09 07:25:16;;;;;;;165.97;79.57;;;5.50;99.20;;;;;;5070611;28;20156;-82
2021/03/09 07:28:02;;;;;;;164.17;73.53;;;5.50;99.20;;;;;;5089346;28;20444;-82
2021/03/09 07:30:31;;;;;;;153.37;70.93;;;5.50;99.20;;;;;;5103986;28;20047;-81
2021/03/09 07:32:59;;;;;;;163.57;74.63;;;5.60;99.20;;;;;;5069164;28;21204;-81
2021/03/09 07:35:28;;;;;;;157.27;73.33;;;5.60;99.20;;;;;;5102580;28;20031;-82
2021/03/09 07:37:55;;;;;;;146.70;68.67;;;5.60;99.20;;;;;;5064846;28;20402;-79
2021/03/09 07:40:30;;;;;;;146.83;67.53;;;5.60;99.30;;;;;;5085577;28;20046;-80
2021/03/09 07:42:57;;;;;;;141.33;65.23;;;5.70;99.30;;;;;;5092329;28;20390;-80
2021/03/09 07:45:36;;;;;;;122.00;55.43;;;5.70;99.30;;;;;;5070763;28;20462;-79
2021/03/09 07:48:09;;;;;;;133.53;58.90;;;5.80;99.40;;;;;;5099624;28;20059;-80
2021/03/09 07:50:39;;;;;;;112.60;50.40;;;5.80;99.40;;;;;;5085959;28;20040;-80
2021/03/09 07:53:11;;;;;;;118.23;52.07;;;5.90;99.50;;;;;;5083203;28;20027;-80
2021/03/09 07:55:39;;;;;;;116.03;53.40;;;5.90;99.40;;;;;;5055923;28;20031;-81
2021/03/09 07:58:13;;;;;;;113.53;51.70;;;5.90;99.40;;;;;;5086291;28;20039;-80
2021/03/09 08:00:59;;;;;;;94.07;43.20;;;6.00;99.50;;;;;;5073063;28;20030;-80
2021/03/09 08:03:32;;;;;;;99.33;45.27;;;6.00;99.50;;;;;;5070307;28;20394;-80
2021/03/09 08:06:10;;;;;;;101.40;49.13;;;6.10;99.50;;;;;;5091318;28;20873;-80
2021/03/09 08:08:49;;;;;;;100.93;46.20;;;6.10;99.40;;;;;;5087911;28;20035;-80
2021/03/09 08:11:19;;;;;;;79.23;38.23;;;6.10;99.50;;;;;;5058981;28;20042;-80
2021/03/09 08:13:47;;;;;;;85.20;38.20;;;6.10;99.50;;;;;;5069294;28;20479;-79
2021/03/09 08:16:20;;;;;;;76.83;34.80;;;6.10;99.60;;;;;;5087911;28;20042;-80
2021/03/09 08:18:48;;;;;;;67.95;31.77;;;6.20;99.60;;;;;;5074214;28;20036;-81
2021/03/09 08:21:15;;;;;;;68.87;32.53;;;6.30;99.60;;;;;;5075662;28;20042;-79
2021/03/09 08:23:45;;;;;;;61.40;29.63;;;6.30;99.60;;;;;;5076336;28;20460;-79
2021/03/09 08:26:14;;;;;;;56.40;28.60;;;6.30;99.60;;;;;;5090130;28;20054;-81
2021/03/09 08:28:42;;;;;;;57.80;29.80;;;6.40;99.60;;;;;;5061566;28;20048;-80
2021/03/09 08:31:11;;;;;;;55.23;26.17;;;6.40;99.60;;;;;;5075204;28;20040;-79
2021/03/09 08:33:52;;;;;;;47.80;24.43;;;6.40;99.60;;;;;;5088241;28;20036;-80
2021/03/09 08:39:11;;;;;;;50.47;24.98;;;6.50;99.60;;;;;;5108210;28;20051;-80
2021/03/09 08:41:37;;;;;;;51.17;24.40;;;6.50;99.60;;;;;;5074689;28;20055;-80
2021/03/09 08:44:21;;;;;;;44.80;23.80;;;6.50;99.70;;;;;;5075929;28;20051;-80
2021/03/09 08:47:02;;;;;;;49.00;24.98;;;6.60;99.80;;;;;;5067453;28;20042;-81
2021/03/09 08:49:35;;;;;;;42.90;23.50;;;6.60;99.60;;;;;;5071760;28;20481;-80
2021/03/09 08:52:10;;;;;;;45.72;22.17;;;6.60;99.70;;;;;;5091585;28;20047;-80
2021/03/09 08:54:45;;;;;;;49.83;24.10;;;6.60;99.70;;;;;;5075359;28;20474;-79
2021/03/09 08:57:18;;;;;;;43.05;22.08;;;6.70;99.80;;;;;;5100047;28;20043;-79
2021/03/09 08:59:50;;;;;;;44.85;22.38;;;6.70;99.70;;;;;;5092363;28;20057;-80
2021/03/09 09:02:21;;;;;;;39.75;21.60;;;6.80;99.80;;;;;;5107102;28;20056;-80
2021/03/09 09:04:56;;;;;;;38.53;19.45;;;6.80;99.80;;;;;;5079092;28;20035;-79
2021/03/09 09:07:26;;;;;;;35.33;17.50;;;7.00;99.90;;;;;;5074712;28;20387;-79
2021/03/09 09:10:16;;;;;;;29.27;17.10;;;7.00;99.90;;;;;;5108828;27;20471;-81
2021/03/09 09:12:47;;;;;;;27.93;14.23;;;7.20;99.80;;;;;;5083463;27;20410;-81
2021/03/09 09:15:15;;;;;;;24.55;13.43;;;7.30;99.80;;;;;;5071633;28;20043;-81
2021/03/09 09:17:44;;;;;;;21.92;11.32;;;7.30;99.70;;;;;;5055948;28;20035;-81
2021/03/09 09:20:27;;;;;;;20.33;10.43;;;7.30;99.60;;;;;;5074517;28;20039;-79
2021/03/09 09:22:54;;;;;;;18.83;8.77;;;7.40;99.70;;;;;;5090134;28;20501;-79
2021/03/09 09:25:22;;;;;;;14.85;8.20;;;7.40;99.50;;;;;;5089792;28;20039;-79
2021/03/09 09:27:54;;;;;;;14.35;7.45;;;7.40;99.30;;;;;;5073556;28;20078;-79
2021/03/09 09:30:43;;;;;;;14.77;7.22;;;7.40;99.40;;;;;;5089629;28;20042;-79
2021/03/09 09:33:11;;;;;;;13.90;6.38;;;7.40;99.30;;;;;;5070739;28;20078;-79
2021/03/09 09:35:38;;;;;;;9.70;5.70;;;7.40;99.30;;;;;;5106918;28;20034;-79
2021/03/09 09:38:10;;;;;;;10.07;5.13;;;7.40;99.40;;;;;;5086143;28;20043;-79
2021/03/09 09:40:44;;;;;;;10.20;5.00;;;7.50;99.40;;;;;;5093606;28;20035;-79
2021/03/09 09:43:19;;;;;;;11.98;5.53;;;7.60;99.40;;;;;;5086837;28;20046;-79
2021/03/09 09:45:49;;;;;;;13.10;5.05;;;7.70;99.20;;;;;;5087723;28;20074;-79
2021/03/09 09:48:28;;;;;;;9.90;4.30;;;7.80;99.20;;;;;;5071401;28;20533;-80
2021/03/09 09:51:00;;;;;;;8.43;4.35;;;7.80;99.10;;;;;;5089784;28;20031;-79
2021/03/09 09:53:34;;;;;;;;;;;7.80;99.00;;;;;;5078822;28;20470;-79
2021/03/09 09:56:02;;;;;;;5.07;3.42;;;7.90;99.20;;;;;;5093483;28;19916;-80
2021/03/09 09:58:42;;;;;;;8.55;3.60;;;7.90;99.10;;;;;;5070591;28;20034;-79
2021/03/09 10:01:11;;;;;;;8.25;3.63;;;8.00;99.00;;;;;;5077063;28;20039;-79
2021/03/09 10:03:57;;;;;;;8.25;3.50;;;8.00;99.00;;;;;;5106310;28;20485;-80
2021/03/09 10:06:48;;;;;;;6.93;3.05;;;8.10;98.90;;;;;;5072464;28;20046;-79
2021/03/09 10:09:21;;;;;;;5.20;3.13;;;8.10;98.90;;;;;;5075173;28;20055;-80
2021/03/09 10:11:59;;;;;;;6.60;3.13;;;8.20;98.60;;;;;;5055921;28;20048;-80
2021/03/09 10:14:32;;;;;;;8.60;3.17;;;8.20;98.50;;;;;;5058847;28;20494;-80
2021/03/09 10:17:00;;;;;;;8.15;3.28;;;8.30;98.40;;;;;;5086937;28;20485;-82
2021/03/09 10:19:38;;;;;;;7.40;2.85;;;8.40;98.00;;;;;;5069291;28;20042;-83
2021/03/09 10:22:17;;;;;;;5.53;2.95;;;8.40;97.80;;;;;;5088103;28;20028;-82
2021/03/09 10:24:44;;;;;;;5.28;2.08;;;8.30;97.50;;;;;;5059248;28;20027;-81
2021/03/09 10:27:17;;;;;;;5.82;2.20;;;8.30;97.50;;;;;;5090409;28;20047;-83
2021/03/09 10:29:44;;;;;;;5.20;2.15;;;8.20;97.60;;;;;;5087884;28;20027;-82
2021/03/09 10:32:17;;;;;;;5.43;1.40;;;8.20;97.70;;;;;;5106435;28;20826;-82
2021/03/09 10:34:44;;;;;;;;;;;8.20;97.50;;;;;;5039859;28;20042;-82
2021/03/09 10:37:12;;;;;;;3.75;1.15;;;8.20;97.20;;;;;;5085383;28;19919;-83
2021/03/09 10:39:56;;;;;;;6.07;1.40;;;8.10;97.30;;;;;;5087837;28;20398;-84
2021/03/09 10:42:39;;;;;;;4.72;1.45;;;8.20;96.90;;;;;;5088535;28;20058;-84
2021/03/09 10:45:15;;;;;;;3.28;1.42;;;8.30;96.40;;;;;;5060004;28;20051;-84
2021/03/09 10:47:43;;;;;;;3.80;0.90;;;8.30;96.00;;;;;;5071684;28;20039;-82
2021/03/09 10:50:10;;;;;;;2.85;1.05;;;8.40;95.90;;;;;;5071657;28;20036;-83
2021/03/09 10:52:37;;;;;;;4.78;1.40;;;8.40;95.80;;;;;;5073402;28;20039;-84
2021/03/09 10:55:04;;;;;;;4.15;1.20;;;8.40;95.80;;;;;;5056794;28;20035;-84
2021/03/09 10:57:31;;;;;;;7.72;1.85;;;8.30;95.80;;;;;;5055532;28;20040;-83
2021/03/09 10:59:57;;;;;;;7.25;0.95;;;8.30;95.80;;;;;;5081941;28;20044;-81
2021/03/09 11:02:24;;;;;;;2.53;0.70;;;8.20;95.50;;;;;;5092528;28;20066;-83
2021/03/09 11:04:51;;;;;;;2.03;0.60;;;8.10;95.40;;;;;;5104224;28;20036;-84
2021/03/09 11:07:17;;;;;;;5.20;0.77;;;8.10;95.20;;;;;;5063628;28;20402;-84
2021/03/09 11:09:44;;;;;;;1.48;0.52;;;8.00;95.40;;;;;;5085287;28;20040;-83
2021/03/09 11:12:10;;;;;;;4.15;0.75;;;8.10;95.70;;;;;;5071460;28;20039;-83
2021/03/09 11:14:37;;;;;;;1.65;0.55;;;8.10;95.60;;;;;;5087092;28;20055;-83
2021/03/09 11:17:04;;;;;;;3.75;0.88;;;8.20;95.70;;;;;;5084963;28;20055;-84
2021/03/09 11:19:31;;;;;;;2.60;0.60;;;8.40;95.50;;;;;;5052272;28;20031;-82
2021/03/09 11:21:58;;;;;;;2.13;0.55;;;8.50;95.20;;;;;;5069947;28;20062;-81
2021/03/09 11:24:25;;;;;;;4.45;0.60;;;8.60;95.30;;;;;;5071176;28;20027;-81
2021/03/09 11:26:56;;;;;;;4.78;0.75;;;8.80;95.20;;;;;;5023297;28;20058;-81
2021/03/09 11:29:23;;;;;;;2.78;0.70;;;9.00;95.10;;;;;;5049230;28;20040;-81
2021/03/09 11:31:49;;;;;;;6.18;0.60;;;9.10;94.40;;;;;;5038327;28;20042;-81
2021/03/09 11:34:15;;;;;;;2.38;0.60;;;9.20;94.10;;;;;;5075467;28;20044;-82
2021/03/09 11:36:42;;;;;;;2.50;0.40;;;9.10;94.10;;;;;;5075130;28;20047;-82
2021/03/09 11:39:10;;;;;;;1.27;0.40;;;9.00;93.20;;;;;;5104626;28;20036;-81
2021/03/09 11:41:37;;;;;;;0.88;0.40;;;8.80;93.50;;;;;;5074029;28;20512;-80
2021/03/09 11:44:07;;;;;;;1.05;0.40;;;8.60;93.70;;;;;;5074589;28;20055;-81
2021/03/09 11:46:35;;;;;;;1.15;0.40;;;8.40;93.90;;;;;;5088398;28;20043;-82
2021/03/09 11:49:03;;;;;;;1.33;0.30;;;8.30;94.00;;;;;;5087281;28;20493;-81
2021/03/09 11:51:30;;;;;;;2.78;0.70;;;8.20;94.30;;;;;;5076808;28;20036;-79
2021/03/09 11:53:56;;;;;;;0.93;0.50;;;8.20;94.50;;;;;;5076233;28;20055;-80
2021/03/09 11:56:23;;;;;;;2.70;0.50;;;8.20;94.60;;;;;;5059702;28;20058;-80
2021/03/09 11:58:50;;;;;;;2.97;0.55;;;8.20;94.50;;;;;;5073168;28;20051;-81
2021/03/09 12:01:18;;;;;;;0.85;0.40;;;8.30;94.60;;;;;;5054070;28;20036;-81
2021/03/09 12:03:44;;;;;;;1.42;0.40;;;8.50;94.90;;;;;;5106945;28;20046;-81
2021/03/09 12:06:11;;;;;;;1.45;0.38;;;8.60;94.90;;;;;;5037777;28;20640;-85
2021/03/09 12:08:38;;;;;;;0.95;0.30;;;8.90;94.80;;;;;;5041952;28;20046;-86
2021/03/09 12:11:04;;;;;;;1.60;0.30;;;8.90;94.20;;;;;;5034089;28;20035;-86
2021/03/09 12:13:31;;;;;;;1.02;0.30;;;8.90;94.10;;;;;;5055042;28;20057;-88
2021/03/09 12:15:58;;;;;;;1.10;0.30;;;8.80;93.80;;;;;;5058443;28;20050;-77
2021/03/09 12:18:25;;;;;;;2.95;0.30;;;8.80;93.80;;;;;;5081123;28;20402;-81
2021/03/09 12:20:51;;;;;;;0.90;0.20;;;8.80;93.80;;;;;;5083258;28;20040;-81
2021/03/09 12:23:18;;;;;;;1.20;0.30;;;8.80;93.40;;;;;;5063545;28;20047;-81
2021/03/09 12:25:44;;;;;;;0.93;0.30;;;8.60;93.60;;;;;;5061646;28;20040;-81
2021/03/09 12:28:11;;;;;;;2.00;0.30;;;8.60;93.40;;;;;;5039619;28;20063;-82
2021/03/09 12:30:37;;;;;;;1.52;0.20;;;8.50;93.60;;;;;;5083178;28;20047;-82
2021/03/09 12:33:04;;;;;;;2.55;0.30;;;8.40;93.60;;;;;;5055903;28;20392;-86
2021/03/09 12:35:31;;;;;;;2.05;0.28;;;8.40;93.70;;;;;;5085616;28;20054;-85
2021/03/09 12:37:57;;;;;;;1.85;0.40;;;8.30;94.00;;;;;;5096307;28;20044;-83
2021/03/09 12:40:24;;;;;;;2.70;0.30;;;8.20;94.10;;;;;;5068455;28;20051;-80
2021/03/09 12:42:50;;;;;;;1.65;0.50;;;8.30;94.40;;;;;;5054074;28;20056;-79
2021/03/09 12:45:18;;;;;;;2.92;0.30;;;8.30;94.40;;;;;;5087264;28;20040;-77
2021/03/09 12:47:44;;;;;;;2.72;0.40;;;8.40;94.50;;;;;;5068773;28;20051;-85
2021/03/09 12:50:29;;;;;;;2.90;0.55;;;8.50;94.50;;;;;;5054410;28;20028;-83
2021/03/09 12:52:55;;;;;;;3.15;0.40;;;8.50;94.50;;;;;;5102113;28;20032;-83
2021/03/09 12:55:22;;;;;;;1.00;0.52;;;8.50;94.20;;;;;;5088304;28;20035;-82
2021/03/09 12:57:49;;;;;;;1.52;0.50;;;8.50;94.20;;;;;;5054369;28;20032;-80